Time;durP1;ratioP1;P1;durP2;ratioP2;P2;SDS_P1;SDS_P2;PMS_P1;PMS_P2;Temp;Humidity;BMP_temperature;BMP_pressure;BME280_temperature;BME280_humidity;BME280_pressure;Samples;Min_cycle;Max_cycle;Signal;HPM_P1;HPM_P2
2022/03/13 00:02:16;;;;;;;76.43;33.88;;;3.80;56.00;;;;;;5000797;28;20610;-79
2022/03/13 00:04:47;;;;;;;67.97;33.70;;;3.70;56.10;;;;;;4999791;28;20292;-79
2022/03/13 00:07:19;;;;;;;62.15;31.65;;;3.70;56.10;;;;;;4985164;28;20199;-79
2022/03/13 00:09:50;;;;;;;55.92;32.33;;;3.80;56.20;;;;;;5000239;28;20234;-79
2022/03/13 00:12:26;;;;;;;35.75;19.98;;;3.80;56.20;;;;;;4985089;28;20214;-79
2022/03/13 00:14:56;;;;;;;33.15;18.27;;;3.70;56.10;;;;;;4987455;28;20230;-78
2022/03/13 00:17:28;;;;;;;30.27;16.90;;;3.70;56.10;;;;;;5000016;28;20238;-78
2022/03/13 00:19:59;;;;;;;26.45;15.93;;;3.70;56.20;;;;;;5001761;28;20230;-79
2022/03/13 00:22:28;;;;;;;40.70;22.15;;;3.70;56.20;;;;;;4998296;28;20207;-78
2022/03/13 00:24:59;;;;;;;52.08;27.88;;;3.70;56.20;;;;;;4998986;28;20658;-79
2022/03/13 00:27:31;;;;;;;65.20;33.92;;;3.70;56.20;;;;;;4984504;28;20211;-79
2022/03/13 00:29:59;;;;;;;43.95;24.75;;;3.70;56.30;;;;;;4986690;28;20228;-79
2022/03/13 00:32:27;;;;;;;39.78;22.77;;;3.70;56.30;;;;;;4985619;28;20234;-79
2022/03/13 00:34:55;;;;;;;34.45;21.27;;;3.70;56.30;;;;;;4986395;28;20603;-79
2022/03/13 00:37:23;;;;;;;33.20;19.08;;;3.70;56.30;;;;;;4985339;28;20213;-78
2022/03/13 00:39:52;;;;;;;35.03;20.05;;;3.60;56.20;;;;;;4984865;28;20699;-79
2022/03/13 00:42:21;;;;;;;34.38;19.55;;;3.60;56.50;;;;;;4986206;28;20202;-79
2022/03/13 00:44:50;;;;;;;34.42;19.45;;;3.60;56.50;;;;;;4998317;28;20210;-78
2022/03/13 00:47:18;;;;;;;29.30;17.48;;;3.60;56.30;;;;;;4982357;28;20767;-79
2022/03/13 00:49:46;;;;;;;31.50;17.63;;;3.60;56.30;;;;;;4984815;28;20245;-78
2022/03/13 00:52:14;;;;;;;29.92;16.90;;;3.60;56.50;;;;;;4984886;28;20222;-78
2022/03/13 00:54:42;;;;;;;27.88;16.85;;;3.60;56.60;;;;;;4983358;28;20217;-79
2022/03/13 00:57:10;;;;;;;34.00;18.65;;;3.60;56.60;;;;;;5000302;28;20270;-78
2022/03/13 00:59:39;;;;;;;33.42;18.50;;;3.60;56.50;;;;;;5000565;28;20230;-79
2022/03/13 01:02:10;;;;;;;29.90;17.90;;;3.60;56.30;;;;;;4988122;28;20234;-78
2022/03/13 01:04:44;;;;;;;29.55;18.60;;;3.60;56.50;;;;;;4982811;28;20796;-78
2022/03/13 01:07:14;;;;;;;35.03;18.58;;;3.60;56.30;;;;;;4986326;28;20210;-78
2022/03/13 01:09:42;;;;;;;36.05;17.92;;;3.60;56.20;;;;;;4989149;28;20234;-79
2022/03/13 01:12:11;;;;;;;25.10;15.95;;;3.50;56.30;;;;;;4985196;28;20226;-78
2022/03/13 01:14:40;;;;;;;28.35;17.35;;;3.40;56.20;;;;;;4983769;28;20210;-78
2022/03/13 01:17:10;;;;;;;29.88;17.20;;;3.30;56.20;;;;;;4988409;28;20238;-79
2022/03/13 01:19:38;;;;;;;31.98;17.25;;;3.30;56.30;;;;;;4989044;28;20231;-78
2022/03/13 01:22:07;;;;;;;28.42;16.67;;;3.20;56.30;;;;;;5003924;28;20198;-78
2022/03/13 01:24:43;;;;;;;26.13;16.63;;;3.20;56.40;;;;;;4988201;28;20206;-79
2022/03/13 01:27:13;;;;;;;28.05;17.65;;;3.20;56.50;;;;;;5000317;28;20206;-79
2022/03/13 01:29:44;;;;;;;29.80;17.95;;;3.20;56.40;;;;;;4999535;28;20227;-79
2022/03/13 01:32:17;;;;;;;27.67;17.50;;;3.20;56.40;;;;;;4988352;28;20265;-78
2022/03/13 01:34:47;;;;;;;31.20;19.23;;;3.30;56.40;;;;;;4984894;28;20222;-79
2022/03/13 01:37:25;;;;;;;28.27;18.45;;;3.20;56.50;;;;;;4989178;28;20207;-78
2022/03/13 01:39:54;;;;;;;38.08;19.35;;;3.20;56.50;;;;;;4988248;28;20227;-78
2022/03/13 01:42:23;;;;;;;32.75;19.42;;;3.30;56.60;;;;;;4989065;28;20203;-78
2022/03/13 01:44:53;;;;;;;29.27;17.55;;;3.30;56.60;;;;;;4991718;28;20209;-78
2022/03/13 01:47:25;;;;;;;26.20;17.38;;;3.40;56.60;;;;;;4985473;28;20243;-78
2022/03/13 01:49:53;;;;;;;29.92;17.88;;;3.40;56.60;;;;;;5003530;28;20697;-78
2022/03/13 01:52:26;;;;;;;29.48;17.70;;;3.40;56.60;;;;;;4997240;28;20601;-78
2022/03/13 01:54:55;;;;;;;27.25;17.05;;;3.40;56.50;;;;;;5002801;28;20756;-79
2022/03/13 01:57:24;;;;;;;37.67;17.50;;;3.50;56.50;;;;;;4988462;28;20195;-78
2022/03/13 01:59:56;;;;;;;29.17;16.88;;;3.40;56.40;;;;;;4989475;28;20230;-78
2022/03/13 02:02:25;;;;;;;29.63;17.17;;;3.40;56.30;;;;;;4983929;28;20222;-78
2022/03/13 02:04:55;;;;;;;26.88;15.98;;;3.30;56.20;;;;;;5002372;28;20320;-79
2022/03/13 02:07:24;;;;;;;42.70;19.10;;;3.20;56.10;;;;;;4986851;28;20211;-78
2022/03/13 02:09:51;;;;;;;58.45;27.75;;;3.10;56.20;;;;;;4986545;28;20908;-78
2022/03/13 02:12:20;;;;;;;84.38;41.67;;;3.10;56.30;;;;;;4987872;28;20215;-78
2022/03/13 02:14:50;;;;;;;73.22;33.22;;;3.10;56.30;;;;;;4985186;28;20692;-78
2022/03/13 02:17:26;;;;;;;31.50;19.35;;;3.10;56.40;;;;;;4984837;28;20237;-78
2022/03/13 02:19:55;;;;;;;29.02;17.60;;;3.10;56.40;;;;;;5001385;28;20230;-79
2022/03/13 02:22:23;;;;;;;28.10;15.25;;;3.10;56.40;;;;;;5002750;28;20197;-78
2022/03/13 02:24:53;;;;;;;27.80;15.77;;;3.20;56.40;;;;;;4985170;28;20207;-78
2022/03/13 02:27:23;;;;;;;27.92;16.80;;;3.20;56.40;;;;;;4986032;28;20261;-78
2022/03/13 02:29:55;;;;;;;31.00;17.75;;;3.30;56.40;;;;;;4998876;28;20233;-79
2022/03/13 02:32:23;;;;;;;25.25;15.00;;;3.40;56.40;;;;;;4985903;28;20699;-78
2022/03/13 02:34:51;;;;;;;26.00;15.52;;;3.40;56.30;;;;;;4986049;28;20198;-78
2022/03/13 02:37:31;;;;;;;25.20;14.50;;;3.40;56.30;;;;;;4985228;28;20211;-78
2022/03/13 02:40:01;;;;;;;21.17;12.32;;;3.40;56.20;;;;;;5001427;28;20254;-78
2022/03/13 02:42:30;;;;;;;24.33;15.30;;;3.40;56.20;;;;;;4983043;28;20289;-79
2022/03/13 02:44:58;;;;;;;20.13;13.23;;;3.40;56.10;;;;;;4986549;28;20214;-78
2022/03/13 02:47:26;;;;;;;24.60;14.70;;;3.30;56.10;;;;;;4980473;28;20245;-78
2022/03/13 02:49:54;;;;;;;26.13;14.60;;;3.30;56.10;;;;;;5000772;28;20711;-78
2022/03/13 02:52:22;;;;;;;21.58;14.43;;;3.20;56.10;;;;;;4986392;28;20210;-79
2022/03/13 02:54:51;;;;;;;23.90;14.68;;;3.20;56.10;;;;;;4999813;28;20678;-78
2022/03/13 02:57:20;;;;;;;24.75;14.27;;;3.20;56.00;;;;;;4986345;28;20206;-78
2022/03/13 02:59:48;;;;;;;28.27;16.10;;;3.10;56.00;;;;;;4984457;28;20646;-78
2022/03/13 03:02:18;;;;;;;25.35;14.70;;;3.00;56.00;;;;;;4988518;28;20313;-78
2022/03/13 03:04:48;;;;;;;20.98;13.52;;;3.00;56.10;;;;;;5000393;28;20385;-78
2022/03/13 03:07:17;;;;;;;21.35;13.23;;;2.90;56.00;;;;;;4984060;28;20199;-78
2022/03/13 03:09:45;;;;;;;19.95;12.48;;;2.80;56.10;;;;;;4984467;28;20958;-78
2022/03/13 03:12:14;;;;;;;22.77;12.45;;;2.80;56.10;;;;;;5000706;28;20770;-78
2022/03/13 03:14:43;;;;;;;23.88;12.77;;;2.80;56.10;;;;;;4983442;28;20206;-78
2022/03/13 03:17:11;;;;;;;22.92;11.98;;;2.70;56.10;;;;;;4983732;28;20234;-78
2022/03/13 03:19:39;;;;;;;19.63;11.93;;;2.70;56.20;;;;;;4985031;28;20230;-78
2022/03/13 03:22:12;;;;;;;17.35;10.80;;;2.70;56.20;;;;;;5000896;28;20442;-78
2022/03/13 03:24:40;;;;;;;19.50;11.55;;;2.70;56.30;;;;;;4983098;28;20585;-79
2022/03/13 03:27:08;;;;;;;16.88;10.75;;;2.70;56.30;;;;;;4999969;28;20269;-78
2022/03/13 03:29:36;;;;;;;17.60;11.57;;;2.70;56.50;;;;;;4982802;28;20199;-78
2022/03/13 03:32:06;;;;;;;19.65;12.18;;;2.80;56.50;;;;;;4983166;28;20230;-78
2022/03/13 03:34:34;;;;;;;22.38;13.93;;;2.80;56.50;;;;;;4982796;28;20696;-79
2022/03/13 03:37:03;;;;;;;22.20;13.43;;;2.80;56.50;;;;;;4999458;28;20217;-78
2022/03/13 03:39:33;;;;;;;20.55;14.18;;;2.90;56.40;;;;;;4985871;28;20195;-78
2022/03/13 03:42:02;;;;;;;18.70;12.70;;;2.80;56.30;;;;;;4985514;28;20207;-78
2022/03/13 03:44:30;;;;;;;25.60;14.20;;;2.80;56.30;;;;;;4981592;28;20229;-79
2022/03/13 03:46:59;;;;;;;19.65;12.15;;;2.80;56.30;;;;;;4984463;28;20233;-78
2022/03/13 03:49:28;;;;;;;20.98;12.75;;;2.80;56.20;;;;;;4984533;28;20230;-78
2022/03/13 03:51:56;;;;;;;23.95;12.95;;;2.70;56.20;;;;;;4985719;28;20210;-78
2022/03/13 03:54:24;;;;;;;22.95;12.95;;;2.70;56.20;;;;;;4999654;28;20269;-78
2022/03/13 03:56:52;;;;;;;20.48;13.50;;;2.70;56.20;;;;;;4984728;28;20719;-78
2022/03/13 03:59:20;;;;;;;23.35;12.57;;;2.60;56.30;;;;;;5000372;28;20195;-78
2022/03/13 04:01:48;;;;;;;19.80;12.20;;;2.60;56.30;;;;;;4983015;28;20230;-78
2022/03/13 04:04:18;;;;;;;19.33;12.50;;;2.60;56.30;;;;;;4983775;28;20203;-78
2022/03/13 04:06:47;;;;;;;24.52;12.80;;;2.60;56.40;;;;;;4984362;28;20207;-78
2022/03/13 04:09:16;;;;;;;22.40;13.02;;;2.60;56.40;;;;;;4984375;28;20707;-78
2022/03/13 04:11:47;;;;;;;20.38;12.65;;;2.60;56.40;;;;;;4985686;28;20203;-78
2022/03/13 04:14:18;;;;;;;17.83;11.65;;;2.60;56.50;;;;;;4984223;28;20211;-78
2022/03/13 04:16:46;;;;;;;21.77;13.05;;;2.60;56.50;;;;;;4984383;28;20233;-78
2022/03/13 04:19:14;;;;;;;17.70;11.45;;;2.60;56.40;;;;;;5000886;28;20249;-78
2022/03/13 04:21:42;;;;;;;24.10;13.15;;;2.50;56.40;;;;;;4981784;28;20241;-78
2022/03/13 04:24:12;;;;;;;18.77;11.98;;;2.40;56.30;;;;;;4983204;28;20210;-78
2022/03/13 04:26:40;;;;;;;23.50;13.55;;;2.40;56.40;;;;;;4984808;28;20273;-78
2022/03/13 04:29:09;;;;;;;21.35;12.57;;;2.30;56.50;;;;;;4985189;28;20225;-77
2022/03/13 04:31:39;;;;;;;28.00;16.13;;;2.30;56.60;;;;;;4984357;28;20238;-78
2022/03/13 04:34:10;;;;;;;21.55;14.45;;;2.30;56.60;;;;;;4999603;28;20226;-78
2022/03/13 04:36:39;;;;;;;22.83;14.88;;;2.20;56.60;;;;;;4987054;28;20207;-78
2022/03/13 04:39:08;;;;;;;19.80;13.18;;;2.10;56.60;;;;;;4995840;28;20273;-78
2022/03/13 04:41:38;;;;;;;23.05;14.57;;;2.10;56.70;;;;;;4988271;28;20724;-78
2022/03/13 04:44:08;;;;;;;26.20;14.93;;;2.10;56.70;;;;;;5001706;28;20203;-78
2022/03/13 04:46:36;;;;;;;20.67;14.68;;;2.00;56.80;;;;;;5002915;28;20296;-78
2022/03/13 04:49:05;;;;;;;20.20;14.27;;;2.00;57.10;;;;;;4988404;28;20207;-79
2022/03/13 04:51:33;;;;;;;24.52;13.65;;;2.10;57.10;;;;;;4987793;28;20222;-78
2022/03/13 04:54:01;;;;;;;24.92;15.70;;;2.10;57.10;;;;;;4987181;28;20230;-78
2022/03/13 04:56:32;;;;;;;32.28;18.63;;;2.00;57.10;;;;;;5003824;28;20199;-77
2022/03/13 04:59:02;;;;;;;37.83;22.45;;;2.00;57.20;;;;;;4987521;28;20219;-77
2022/03/13 05:01:30;;;;;;;31.20;19.30;;;2.10;57.20;;;;;;4984470;28;20238;-78
2022/03/13 05:03:58;;;;;;;23.65;14.80;;;2.10;57.30;;;;;;4987544;28;20218;-78
2022/03/13 05:06:26;;;;;;;20.92;12.38;;;2.10;57.20;;;;;;4987963;28;20210;-77
2022/03/13 05:08:56;;;;;;;18.15;10.80;;;2.00;57.20;;;;;;4983551;28;20310;-78
2022/03/13 05:11:24;;;;;;;14.07;10.63;;;1.90;57.00;;;;;;5001394;28;20249;-78
2022/03/13 05:13:51;;;;;;;15.75;10.30;;;1.80;57.00;;;;;;4987120;28;20739;-78
2022/03/13 05:16:21;;;;;;;19.38;11.98;;;1.60;57.10;;;;;;4999821;28;20238;-78
2022/03/13 05:18:49;;;;;;;18.15;11.65;;;1.50;57.10;;;;;;4985850;28;20206;-78
2022/03/13 05:21:18;;;;;;;19.38;12.27;;;1.50;57.30;;;;;;4988377;28;20252;-77
2022/03/13 05:23:46;;;;;;;18.33;10.65;;;1.50;57.60;;;;;;4986796;28;20233;-78
2022/03/13 05:26:14;;;;;;;19.17;10.75;;;1.60;57.40;;;;;;4992855;28;20213;-78
2022/03/13 05:28:42;;;;;;;20.30;10.70;;;1.60;57.40;;;;;;4985764;28;20253;-79
2022/03/13 05:31:10;;;;;;;25.02;14.07;;;1.60;57.50;;;;;;5001934;28;20700;-78
2022/03/13 05:33:40;;;;;;;20.17;12.43;;;1.70;57.50;;;;;;4985186;28;20234;-78
2022/03/13 05:36:09;;;;;;;18.88;12.63;;;1.70;57.40;;;;;;4987280;28;20210;-78
2022/03/13 05:38:37;;;;;;;21.50;12.27;;;1.60;57.50;;;;;;4986753;28;20210;-78
2022/03/13 05:41:06;;;;;;;18.98;12.25;;;1.60;57.50;;;;;;4990601;28;20257;-77
2022/03/13 05:43:34;;;;;;;18.42;11.38;;;1.60;57.50;;;;;;5001871;28;20230;-79
2022/03/13 05:46:02;;;;;;;18.23;11.80;;;1.60;57.50;;;;;;5002098;28;20519;-78
2022/03/13 05:48:32;;;;;;;20.42;11.18;;;1.60;57.60;;;;;;4986942;28;20211;-78
2022/03/13 05:51:01;;;;;;;19.15;11.55;;;1.60;57.60;;;;;;5001493;28;20230;-78
2022/03/13 05:53:29;;;;;;;19.92;11.63;;;1.60;57.50;;;;;;4998816;28;20202;-79
2022/03/13 05:55:57;;;;;;;17.77;10.68;;;1.60;57.50;;;;;;4986944;28;20211;-77
2022/03/13 05:58:25;;;;;;;19.60;10.85;;;1.70;57.60;;;;;;4985573;28;20218;-78
2022/03/13 06:01:03;;;;;;;19.83;10.88;;;1.70;57.60;;;;;;4986482;28;20249;-78
2022/03/13 06:03:31;;;;;;;19.27;12.32;;;1.80;57.60;;;;;;4985789;28;20761;-78
2022/03/13 06:06:02;;;;;;;16.67;10.60;;;1.80;57.60;;;;;;4985014;28;20214;-78
2022/03/13 06:08:30;;;;;;;17.38;10.10;;;1.90;57.60;;;;;;5001878;28;20214;-78
2022/03/13 06:10:58;;;;;;;21.77;10.90;;;1.90;57.60;;;;;;5002720;28;20235;-78
2022/03/13 06:13:26;;;;;;;34.05;18.35;;;2.00;57.70;;;;;;4987175;28;20219;-78
2022/03/13 06:15:54;;;;;;;35.55;18.98;;;2.10;57.60;;;;;;5002134;28;20234;-78
2022/03/13 06:18:22;;;;;;;23.98;13.50;;;2.10;57.40;;;;;;5002562;28;20247;-78
2022/03/13 06:20:50;;;;;;;20.02;11.80;;;2.20;57.50;;;;;;4987735;28;20230;-78
2022/03/13 06:23:20;;;;;;;20.02;11.63;;;2.20;57.40;;;;;;4985228;28;20274;-79
2022/03/13 06:25:48;;;;;;;19.92;11.43;;;2.30;57.30;;;;;;4986603;28;20597;-80
2022/03/13 06:28:16;;;;;;;17.77;11.73;;;2.30;57.30;;;;;;4986422;28;20223;-77
2022/03/13 06:30:44;;;;;;;16.77;11.23;;;2.30;57.20;;;;;;5000714;28;20265;-78
2022/03/13 06:33:12;;;;;;;21.35;12.30;;;2.30;57.20;;;;;;4986401;28;20209;-78
2022/03/13 06:35:41;;;;;;;20.67;11.82;;;2.30;57.30;;;;;;5002358;28;20227;-78
2022/03/13 06:38:09;;;;;;;20.75;11.95;;;2.30;57.20;;;;;;4988131;28;20437;-78
2022/03/13 06:40:38;;;;;;;18.80;12.57;;;2.40;57.30;;;;;;4986496;28;20617;-77
2022/03/13 06:43:06;;;;;;;15.98;11.93;;;2.40;57.30;;;;;;4987726;28;20254;-78
2022/03/13 06:45:34;;;;;;;17.80;11.70;;;2.40;57.30;;;;;;4986564;28;20241;-78
2022/03/13 06:48:02;;;;;;;16.40;11.27;;;2.40;57.30;;;;;;4986527;28;20861;-78
2022/03/13 06:50:30;;;;;;;22.15;12.60;;;2.50;57.30;;;;;;4998144;28;20738;-77
2022/03/13 06:52:59;;;;;;;22.33;12.88;;;2.50;57.30;;;;;;4987054;28;20207;-79
2022/03/13 06:55:27;;;;;;;21.77;11.98;;;2.50;57.30;;;;;;4983144;28;20229;-77
2022/03/13 06:57:56;;;;;;;18.70;11.60;;;2.60;57.30;;;;;;4986342;28;20191;-78
2022/03/13 07:00:24;;;;;;;15.75;11.02;;;2.60;57.30;;;;;;4986201;28;20233;-77
2022/03/13 07:02:52;;;;;;;22.15;12.68;;;2.70;57.40;;;;;;4982481;28;20215;-78
2022/03/13 07:05:21;;;;;;;20.50;12.05;;;2.70;57.40;;;;;;4984012;28;20210;-78
2022/03/13 07:07:49;;;;;;;17.77;12.32;;;2.80;57.40;;;;;;4985866;28;20203;-77
2022/03/13 07:10:17;;;;;;;20.25;13.60;;;2.80;57.40;;;;;;4986158;28;20771;-79
2022/03/13 07:12:45;;;;;;;24.13;15.68;;;2.90;57.40;;;;;;4983011;28;20225;-78
2022/03/13 07:15:16;;;;;;;19.60;13.35;;;2.90;57.40;;;;;;5000183;28;20310;-77
2022/03/13 07:17:45;;;;;;;21.05;12.60;;;3.00;57.30;;;;;;4999766;28;20214;-79
2022/03/13 07:20:14;;;;;;;17.75;11.52;;;3.00;57.10;;;;;;4986678;28;20652;-79
2022/03/13 07:22:43;;;;;;;27.00;12.57;;;3.00;56.90;;;;;;4984675;28;20205;-78
2022/03/13 07:25:12;;;;;;;23.88;14.68;;;3.00;56.80;;;;;;5001706;28;20222;-78
2022/03/13 07:27:40;;;;;;;27.67;14.15;;;3.10;56.70;;;;;;4985802;28;20210;-78
2022/03/13 07:30:12;;;;;;;25.50;13.70;;;3.10;56.50;;;;;;4986126;28;20728;-78
2022/03/13 07:32:44;;;;;;;34.55;18.52;;;3.20;56.30;;;;;;4983300;28;20947;-78
2022/03/13 07:35:13;;;;;;;34.53;17.38;;;3.20;56.10;;;;;;4983140;28;20218;-78
2022/03/13 07:37:43;;;;;;;27.95;14.73;;;3.30;56.00;;;;;;4985104;28;20578;-78
2022/03/13 07:40:13;;;;;;;39.88;19.45;;;3.30;56.00;;;;;;4983976;28;20227;-78
2022/03/13 07:42:41;;;;;;;17.88;12.00;;;3.30;56.00;;;;;;4985841;28;20704;-77
2022/03/13 07:45:12;;;;;;;24.58;13.82;;;3.40;55.90;;;;;;4986738;28;20226;-80
2022/03/13 07:47:40;;;;;;;27.73;13.88;;;3.50;55.60;;;;;;4988239;28;20202;-78
2022/03/13 07:50:11;;;;;;;15.23;10.90;;;3.60;55.40;;;;;;4987488;28;20228;-78
2022/03/13 07:52:39;;;;;;;15.18;9.30;;;3.60;55.40;;;;;;4981500;28;20675;-77
2022/03/13 07:55:08;;;;;;;19.30;10.50;;;3.70;55.40;;;;;;4999339;28;20250;-77
2022/03/13 07:57:36;;;;;;;16.10;10.57;;;3.70;55.00;;;;;;4998918;28;20230;-77
2022/03/13 08:00:11;;;;;;;18.02;9.57;;;3.80;55.10;;;;;;4985305;28;20223;-78
2022/03/13 08:02:46;;;;;;;15.52;9.75;;;3.80;54.90;;;;;;4984334;28;20219;-77
2022/03/13 08:05:18;;;;;;;16.00;9.02;;;3.90;55.00;;;;;;4984870;28;20186;-78
2022/03/13 08:07:46;;;;;;;17.92;9.32;;;4.00;54.60;;;;;;4985858;28;20199;-78
2022/03/13 08:10:17;;;;;;;20.50;10.20;;;4.00;54.60;;;;;;4997203;28;20709;-78
2022/03/13 08:12:45;;;;;;;16.58;10.50;;;4.10;54.50;;;;;;4996527;28;20215;-78
2022/03/13 08:15:13;;;;;;;14.85;8.40;;;4.10;54.20;;;;;;5002257;28;20211;-78
2022/03/13 08:17:41;;;;;;;13.32;9.18;;;4.20;54.10;;;;;;4989788;28;20199;-78
2022/03/13 08:20:10;;;;;;;14.10;9.18;;;4.30;53.90;;;;;;5005248;28;20230;-78
2022/03/13 08:22:40;;;;;;;14.80;9.40;;;4.40;53.90;;;;;;4984709;28;20245;-78
2022/03/13 08:25:10;;;;;;;16.65;9.15;;;4.40;53.90;;;;;;4976909;28;20206;-78
2022/03/13 08:27:38;;;;;;;14.30;9.50;;;4.50;53.70;;;;;;5004944;28;20207;-77
2022/03/13 08:30:09;;;;;;;19.17;11.18;;;4.60;53.20;;;;;;5004415;28;20226;-79
2022/03/13 08:32:37;;;;;;;24.45;12.48;;;4.70;53.10;;;;;;4987553;28;20203;-78
2022/03/13 08:35:06;;;;;;;22.75;12.70;;;4.70;53.20;;;;;;5000451;28;20230;-78
2022/03/13 08:37:34;;;;;;;19.35;10.75;;;4.80;52.80;;;;;;4990065;28;20220;-77
2022/03/13 08:40:05;;;;;;;23.13;13.25;;;4.90;52.80;;;;;;4989976;28;20233;-79
2022/03/13 08:42:34;;;;;;;23.55;13.30;;;4.90;52.80;;;;;;4984879;28;20206;-77
2022/03/13 08:45:02;;;;;;;12.93;8.77;;;5.00;52.50;;;;;;4982836;28;20595;-79
2022/03/13 08:47:30;;;;;;;19.02;12.48;;;5.10;52.30;;;;;;4987611;28;20227;-77
2022/03/13 08:49:58;;;;;;;17.45;10.68;;;5.10;52.40;;;;;;4989791;28;20607;-79
2022/03/13 08:52:26;;;;;;;15.77;10.70;;;5.20;52.20;;;;;;5004136;28;20257;-79
2022/03/13 08:54:54;;;;;;;21.60;14.00;;;5.30;52.20;;;;;;5003909;28;20203;-78
2022/03/13 08:57:23;;;;;;;18.52;11.15;;;5.30;52.00;;;;;;4989503;28;20641;-79
2022/03/13 08:59:51;;;;;;;14.13;9.52;;;5.40;51.70;;;;;;4988532;28;20226;-79
2022/03/13 09:02:22;;;;;;;14.35;9.32;;;5.40;51.50;;;;;;4987267;28;20230;-76
2022/03/13 09:04:50;;;;;;;20.95;11.02;;;5.50;50.60;;;;;;5002457;28;20234;-78
2022/03/13 09:07:18;;;;;;;19.15;10.10;;;5.50;51.30;;;;;;5004361;28;20205;-77
2022/03/13 09:09:57;;;;;;;17.27;11.02;;;5.60;51.40;;;;;;5004006;28;20234;-77
2022/03/13 09:12:27;;;;;;;18.05;11.50;;;5.70;50.90;;;;;;4991886;28;20786;-77
2022/03/13 09:14:55;;;;;;;19.92;9.43;;;5.70;51.00;;;;;;4992131;28;20210;-77
2022/03/13 09:17:23;;;;;;;18.17;9.90;;;5.80;50.70;;;;;;4985036;28;20234;-77
2022/03/13 09:19:51;;;;;;;16.10;9.40;;;5.80;50.50;;;;;;4987221;28;20238;-77
2022/03/13 09:22:19;;;;;;;16.63;10.35;;;5.90;50.60;;;;;;4987768;28;20214;-77
2022/03/13 09:24:48;;;;;;;19.75;10.07;;;6.00;50.40;;;;;;4988197;28;20273;-77
2022/03/13 09:27:16;;;;;;;16.67;9.50;;;6.00;50.60;;;;;;5003844;28;20206;-79
2022/03/13 09:29:45;;;;;;;16.25;9.90;;;6.10;50.20;;;;;;4988727;28;20222;-79
2022/03/13 09:32:13;;;;;;;15.52;9.52;;;6.20;50.10;;;;;;4988510;28;20234;-78
2022/03/13 09:34:41;;;;;;;13.23;9.30;;;6.20;50.10;;;;;;5000657;28;20214;-78
2022/03/13 09:37:09;;;;;;;15.13;9.30;;;6.20;50.00;;;;;;4991460;28;20234;-78
2022/03/13 09:39:37;;;;;;;16.38;8.30;;;6.30;50.00;;;;;;5003675;28;20858;-78
2022/03/13 09:42:05;;;;;;;16.73;9.55;;;6.40;49.90;;;;;;4988469;28;20808;-77
2022/03/13 09:44:34;;;;;;;20.35;11.95;;;6.40;49.70;;;;;;4987076;28;20218;-77
2022/03/13 09:47:06;;;;;;;14.50;10.00;;;6.50;49.60;;;;;;4990564;28;20265;-77
2022/03/13 09:49:42;;;;;;;16.77;9.48;;;6.50;49.70;;;;;;4989401;28;20214;-77
2022/03/13 09:52:10;;;;;;;14.90;9.20;;;6.60;49.30;;;;;;4987991;28;20210;-78
2022/03/13 09:54:38;;;;;;;19.35;11.57;;;6.60;49.40;;;;;;4990664;28;20202;-78
2022/03/13 09:57:06;;;;;;;14.43;9.35;;;6.70;49.60;;;;;;4987747;28;20214;-77
2022/03/13 09:59:35;;;;;;;15.90;9.02;;;6.80;49.50;;;;;;4988509;28;20199;-78
2022/03/13 10:02:06;;;;;;;18.08;9.07;;;6.90;49.30;;;;;;5002077;28;20234;-77
2022/03/13 10:04:34;;;;;;;14.60;9.90;;;6.90;49.40;;;;;;4985399;28;20229;-78
2022/03/13 10:07:08;;;;;;;27.98;13.52;;;7.00;49.10;;;;;;4987787;28;20203;-77
2022/03/13 10:09:37;;;;;;;12.10;9.52;;;7.00;49.00;;;;;;4986231;28;20812;-77
2022/03/13 10:12:08;;;;;;;15.15;9.18;;;7.10;49.10;;;;;;4987087;28;20202;-77
2022/03/13 10:14:38;;;;;;;16.25;9.60;;;7.10;49.00;;;;;;4986072;28;20257;-77
2022/03/13 10:17:25;;;;;;;14.67;9.67;;;7.20;48.90;;;;;;4985737;28;20234;-77
2022/03/13 10:19:53;;;;;;;15.95;10.45;;;7.20;48.90;;;;;;4987151;28;20488;-77
2022/03/13 10:22:28;;;;;;;17.27;10.63;;;7.30;48.50;;;;;;5002387;28;20203;-77
2022/03/13 10:24:56;;;;;;;19.23;9.50;;;7.30;48.70;;;;;;4986432;28;20450;-78
2022/03/13 10:27:24;;;;;;;15.27;9.90;;;7.40;48.70;;;;;;4987390;28;20202;-78
2022/03/13 10:29:52;;;;;;;14.07;9.65;;;7.40;48.60;;;;;;4987475;28;20481;-79
2022/03/13 10:32:22;;;;;;;17.00;10.65;;;7.50;48.60;;;;;;4985151;28;20226;-78
2022/03/13 10:34:55;;;;;;;12.95;9.52;;;7.50;48.50;;;;;;5001480;28;20245;-79
2022/03/13 10:37:34;;;;;;;16.03;9.63;;;7.50;48.50;;;;;;4982560;28;20305;-79
2022/03/13 10:40:12;;;;;;;17.88;9.50;;;7.60;48.50;;;;;;4986152;28;20477;-79
2022/03/13 10:42:44;;;;;;;17.40;9.40;;;7.70;48.50;;;;;;4986197;28;20217;-77
2022/03/13 10:45:32;;;;;;;14.27;8.93;;;7.70;48.20;;;;;;4984994;28;20516;-78
2022/03/13 10:48:21;;;;;;;15.23;9.85;;;7.70;48.20;;;;;;5000638;28;20719;-80
2022/03/13 10:50:51;;;;;;;14.30;9.43;;;7.80;48.20;;;;;;4999577;28;20226;-79
2022/03/13 10:53:20;;;;;;;16.20;9.20;;;7.80;48.20;;;;;;4987054;28;20195;-80
2022/03/13 10:56:04;;;;;;;16.10;9.90;;;7.90;48.20;;;;;;4987580;28;20512;-79
2022/03/13 10:58:35;;;;;;;16.50;10.00;;;7.90;48.00;;;;;;5001567;28;20458;-79
2022/03/13 11:01:07;;;;;;;21.30;10.50;;;8.00;48.00;;;;;;4987216;28;20492;-79
2022/03/13 11:03:38;;;;;;;16.30;10.97;;;8.10;48.00;;;;;;4984181;28;20301;-79
2022/03/13 11:06:08;;;;;;;19.43;10.20;;;8.10;47.90;;;;;;5001469;28;21074;-78
2022/03/13 11:08:36;;;;;;;14.40;9.60;;;8.10;47.70;;;;;;4986657;28;20450;-78
2022/03/13 11:11:04;;;;;;;14.90;9.97;;;8.20;47.80;;;;;;4999700;28;20486;-78
2022/03/13 11:13:35;;;;;;;16.40;9.60;;;8.20;47.80;;;;;;4985216;28;20472;-79
2022/03/13 11:16:03;;;;;;;19.50;13.37;;;8.30;47.70;;;;;;4986386;28;20469;-78
2022/03/13 11:18:35;;;;;;;15.70;11.00;;;8.30;47.70;;;;;;4982643;28;20569;-78
2022/03/13 11:21:06;;;;;;;20.80;9.53;;;8.30;47.60;;;;;;4986185;28;20534;-79
2022/03/13 11:23:34;;;;;;;17.10;11.00;;;8.40;47.70;;;;;;4985089;28;20932;-79
2022/03/13 11:26:03;;;;;;;16.70;9.73;;;8.50;47.70;;;;;;4986788;28;20457;-80
2022/03/13 11:28:32;;;;;;;14.47;10.00;;;8.50;47.50;;;;;;5001713;28;20460;-79
2022/03/13 11:31:00;;;;;;;16.93;10.27;;;8.60;47.40;;;;;;4984374;28;20493;-80
2022/03/13 11:33:32;;;;;;;19.27;11.60;;;8.60;47.40;;;;;;4985341;28;21277;-78
2022/03/13 11:36:30;;;;;;;18.33;10.70;;;8.60;47.50;;;;;;5001737;28;20462;-78
2022/03/13 11:38:59;;;;;;;15.60;9.93;;;8.70;47.40;;;;;;4999625;28;20509;-77
2022/03/13 11:41:36;;;;;;;18.27;9.30;;;8.70;47.50;;;;;;4982484;28;20479;-79
2022/03/13 11:44:09;;;;;;;25.03;13.63;;;8.70;47.30;;;;;;4998489;28;20458;-79
2022/03/13 11:46:44;;;;;;;15.20;10.37;;;8.80;47.30;;;;;;5001065;28;20524;-79
2022/03/13 11:49:17;;;;;;;32.50;12.67;;;8.80;47.30;;;;;;4984720;28;21040;-79
2022/03/13 11:51:46;;;;;;;16.43;10.07;;;8.90;47.30;;;;;;4982617;28;20484;-80
2022/03/13 11:54:15;;;;;;;24.20;13.47;;;8.90;47.10;;;;;;4984996;28;20844;-77
2022/03/13 11:56:50;;;;;;;18.70;11.23;;;8.90;47.20;;;;;;4995222;28;20468;-78
2022/03/13 11:59:21;;;;;;;17.50;9.77;;;9.00;47.00;;;;;;4986245;28;20453;-78
2022/03/13 12:01:52;;;;;;;18.17;11.37;;;9.00;47.20;;;;;;4985427;28;20477;-78
2022/03/13 12:04:28;;;;;;;22.80;13.10;;;9.00;47.10;;;;;;4997196;28;20870;-77
2022/03/13 12:07:01;;;;;;;16.30;11.60;;;9.00;46.90;;;;;;4983300;28;20468;-79
2022/03/13 12:09:31;;;;;;;88.03;44.23;;;9.10;46.90;;;;;;4986388;28;20508;-78
2022/03/13 12:12:05;;;;;;;35.17;18.63;;;9.10;47.00;;;;;;4986464;28;20445;-78
2022/03/13 12:14:54;;;;;;;17.07;10.90;;;9.10;47.10;;;;;;4984253;28;20519;-78
2022/03/13 12:17:25;;;;;;;18.23;10.80;;;9.20;47.00;;;;;;4986262;28;20513;-78
2022/03/13 12:19:55;;;;;;;15.97;11.27;;;9.20;47.00;;;;;;4984107;28;20480;-77
2022/03/13 12:22:26;;;;;;;21.13;15.43;;;9.20;46.90;;;;;;4986023;28;20450;-78
2022/03/13 12:24:55;;;;;;;16.17;11.17;;;9.30;46.90;;;;;;4998194;28;20462;-79
2022/03/13 12:27:24;;;;;;;16.90;11.17;;;9.30;46.80;;;;;;4986341;28;20464;-80
2022/03/13 12:29:56;;;;;;;19.83;11.80;;;9.40;46.90;;;;;;4986237;28;20474;-78
2022/03/13 12:32:29;;;;;;;18.93;11.57;;;9.50;46.90;;;;;;4997078;28;20477;-78
2022/03/13 12:34:58;;;;;;;15.13;10.70;;;9.50;46.80;;;;;;4999740;28;20557;-78
2022/03/13 12:37:27;;;;;;;15.50;11.50;;;9.50;46.70;;;;;;4997075;28;20496;-80
2022/03/13 12:39:58;;;;;;;19.03;11.53;;;9.60;46.70;;;;;;4986324;28;20473;-79
2022/03/13 12:42:28;;;;;;;20.30;11.40;;;9.70;46.80;;;;;;4984458;28;20967;-79
2022/03/13 12:45:05;;;;;;;19.50;12.17;;;9.80;46.80;;;;;;4983267;28;20465;-78
2022/03/13 12:47:37;;;;;;;21.30;12.87;;;9.90;46.70;;;;;;4982729;28;20549;-78
2022/03/13 12:50:09;;;;;;;16.07;11.40;;;10.00;46.80;;;;;;4982416;28;20473;-79
2022/03/13 12:52:39;;;;;;;17.30;11.30;;;10.10;46.50;;;;;;4994731;28;20732;-79